| time (UTC) | temp F | wind direction | speed knots | gust knots | rain 1hr in | rain 24hr in | rain mn in | humidity % | barometer mb |
| 20260509173851 | 86 | 291 | 3.5 | 3.5 | 0.00 | 0.00 | 0.00 | 50 | 1011.5 |
| 20260509173346 | 85 | 284 | 3.5 | 6.1 | 0.00 | 0.00 | 0.00 | 50 | 1011.2 |
| 20260509172843 | 84 | 343 | 2.6 | 4.3 | 0.00 | 0.00 | 0.00 | 52 | 1011.3 |
| 20260509172340 | 86 | 21 | 4.3 | 6.1 | 0.00 | 0.00 | 0.00 | 50 | 1011.2 |
| 20260509171836 | 86 | 301 | 1.7 | 5.2 | 0.00 | 0.00 | 0.00 | 49 | 1011.4 |
| 20260509171332 | 85 | 301 | 2.6 | 5.2 | 0.00 | 0.00 | 0.00 | 49 | 1011.5 |
| 20260509170828 | 85 | 350 | 1.7 | 5.2 | 0.00 | 0.00 | 0.00 | 51 | 1011.4 |
| 20260509170324 | 86 | 15 | 3.5 | 4.3 | 0.00 | 0.00 | 0.00 | 50 | 1011.4 |
| 20260509165824 | 85 | 317 | 3.5 | 4.3 | 0.00 | 0.00 | 0.00 | 50 | 1011.6 |
| 20260509165318 | 85 | 240 | 2.6 | 6.1 | 0.00 | 0.00 | 0.00 | 51 | 1011.7 |
| 20260509164815 | 83 | 1 | 4.3 | 5.2 | 0.00 | 0.00 | 0.00 | 54 | 1011.7 |
| 20260509164311 | 84 | 358 | 1.7 | 7.8 | 0.00 | 0.00 | 0.00 | 54 | 1011.7 |
| 20260509163808 | 84 | 341 | 3.5 | 6.1 | 0.00 | 0.00 | 0.00 | 54 | 1011.6 |
| 20260509163305 | 85 | 328 | 1.7 | 3.5 | 0.00 | 0.00 | 0.00 | 53 | 1011.8 |
| 20260509162804 | 83 | 260 | 3.5 | 5.2 | 0.00 | 0.00 | 0.00 | 52 | 1011.6 |
| 20260509162306 | 82 | 349 | 4.3 | 8.7 | 0.00 | 0.00 | 0.00 | 54 | 1011.5 |
| 20260509161759 | 83 | 1 | 4.3 | 5.2 | 0.00 | 0.00 | 0.00 | 54 | 1011.4 |
| 20260509161255 | 83 | 11 | 1.7 | 4.3 | 0.00 | 0.00 | 0.00 | 55 | 1011.5 |
| 20260509160750 | 83 | 359 | 5.2 | 6.1 | 0.00 | 0.00 | 0.00 | 53 | 1011.6 |
| 20260509160247 | 82 | 280 | 1.7 | 6.1 | 0.00 | 0.00 | 0.00 | 54 | 1011.6 |
| 20260509155742 | 82 | 326 | 1.7 | 6.1 | 0.00 | 0.00 | 0.00 | 54 | 1011.4 |
| 20260509155239 | 82 | 306 | 1.7 | 7.0 | 0.00 | 0.00 | 0.00 | 53 | 1011.4 |
| 20260509154735 | 82 | 4 | 2.6 | 6.1 | 0.00 | 0.00 | 0.00 | 53 | 1011.4 |
| 20260509154232 | 82 | 297 | 1.7 | 3.5 | 0.00 | 0.00 | 0.00 | 55 | 1011.6 |
| 20260509153730 | 81 | 34 | 4.3 | 7.0 | 0.00 | 0.00 | 0.00 | 56 | 1011.7 |
| 20260509153225 | 82 | 312 | 2.6 | 4.3 | 0.00 | 0.00 | 0.00 | 58 | 1011.4 |
| 20260509152722 | 81 | 336 | 1.7 | 5.2 | 0.00 | 0.00 | 0.00 | 57 | 1011.5 |
| 20260509152219 | 80 | 347 | 2.6 | 5.2 | 0.00 | 0.00 | 0.00 | 59 | 1011.4 |
| 20260509151715 | 80 | 35 | 1.7 | 4.3 | 0.00 | 0.00 | 0.00 | 62 | 1011.4 |
| 20260509151212 | 80 | 10 | 4.3 | 5.2 | 0.00 | 0.00 | 0.00 | 62 | 1011.2 |
| 20260509150710 | 80 | 14 | 2.6 | 2.6 | 0.00 | 0.00 | 0.00 | 65 | 1011.2 |
| 20260509150208 | 79 | 35 | 4.3 | 4.3 | 0.00 | 0.00 | 0.00 | 66 | 1011.3 |
| 20260509145704 | 79 | 295 | 2.6 | 3.5 | 0.00 | 0.00 | 0.00 | 67 | 1011.3 |
| 20260509145200 | 78 | 294 | 1.7 | 4.3 | 0.00 | 0.00 | 0.00 | 69 | 1011.4 |
| 20260509144656 | 78 | 262 | 1.7 | 3.5 | 0.00 | 0.00 | 0.00 | 70 | 1011.5 |
| 20260509144154 | 78 | 72 | 1.7 | 2.6 | 0.00 | 0.00 | 0.00 | 71 | 1011.5 |
| 20260509143651 | 77 | 343 | 1.7 | 3.5 | 0.00 | 0.00 | 0.00 | 72 | 1011.6 |
| 20260509143148 | 76 | 37 | 2.6 | 5.2 | 0.00 | 0.00 | 0.00 | 72 | 1011.6 |
| 20260509142643 | 76 | 318 | 3.5 | 4.3 | 0.00 | 0.00 | 0.00 | 74 | 1011.8 |
| 20260509142141 | 75 | 313 | 3.5 | 4.3 | 0.00 | 0.00 | 0.00 | 75 | 1011.7 |
| 20260509141636 | 75 | 325 | 2.6 | 3.5 | 0.00 | 0.00 | 0.00 | 76 | 1011.8 |
| 20260509141132 | 74 | 288 | 0.9 | 2.6 | 0.00 | 0.00 | 0.00 | 77 | 1011.7 |
| 20260509140630 | 74 | 292 | 1.7 | 4.3 | 0.00 | 0.00 | 0.00 | 77 | 1011.5 |
| 20260509140128 | 73 | 293 | 6.1 | 7.0 | 0.00 | 0.00 | 0.00 | 78 | 1011.5 |
| 20260509135624 | 74 | 16 | 0.9 | 3.5 | 0.00 | 0.00 | 0.00 | 78 | 1011.4 |
| 20260509135123 | 73 | 308 | 2.6 | 3.5 | 0.00 | 0.00 | 0.00 | 78 | 1011.4 |
| 20260509134619 | 73 | 32 | 2.6 | 4.3 | 0.00 | 0.00 | 0.00 | 79 | 1011.5 |
| 20260509134117 | 73 | 266 | 2.6 | 7.0 | 0.00 | 0.00 | 0.00 | 79 | 1011.4 |
| 20260509133614 | 73 | 19 | 0.9 | 3.5 | 0.00 | 0.00 | 0.00 | 80 | 1011.3 |
| 20260509133111 | 73 | 338 | 1.7 | 3.5 | 0.00 | 0.00 | 0.00 | 80 | 1011.3 |
| 20260509132609 | 73 | 273 | 0.9 | 4.3 | 0.00 | 0.00 | 0.00 | 80 | 1011.3 |
| 20260509132107 | 72 | 290 | 1.7 | 5.2 | 0.00 | 0.00 | 0.00 | 81 | 1011.1 |
| 20260509131603 | 71 | 322 | 0.0 | 3.5 | 0.00 | 0.00 | 0.00 | 83 | 1011.1 |
| 20260509131100 | 71 | 273 | 1.7 | 4.3 | 0.00 | 0.00 | 0.00 | 83 | 1011.1 |
| 20260509130555 | 71 | 289 | 3.5 | 6.1 | 0.00 | 0.00 | 0.00 | 83 | 1011.2 |
| 20260509130053 | 71 | 29 | 5.2 | 5.2 | 0.00 | 0.00 | 0.00 | 84 | 1011.1 |
| 20260509125549 | 70 | 134 | 0.0 | 2.6 | 0.00 | 0.00 | 0.00 | 85 | 1011.1 |
| 20260509125046 | 70 | 315 | 2.6 | 3.5 | 0.00 | 0.00 | 0.00 | 86 | 1011.0 |
| 20260509124542 | 69 | 62 | 0.0 | 2.6 | 0.00 | 0.00 | 0.00 | 87 | 1011.0 |
| 20260509124039 | 69 | 83 | 0.9 | 1.7 | 0.00 | 0.00 | 0.00 | 88 | 1011.0 |
| 20260509123537 | 68 | 226 | 0.0 | 2.6 | 0.00 | 0.00 | 0.00 | 90 | 1010.9 |
| 20260509123033 | 68 | 180 | 1.7 | 1.7 | 0.00 | 0.00 | 0.00 | 93 | 1011.0 |
| 20260509122530 | 68 | 198 | 0.0 | 1.7 | 0.00 | 0.00 | 0.00 | 94 | 1011.0 |
| 20260509122027 | 68 | 64 | 0.0 | 1.7 | 0.00 | 0.00 | 0.00 | 94 | 1011.0 |
| 20260509121523 | 68 | 199 | 0.0 | 1.7 | 0.00 | 0.00 | 0.00 | 94 | 1010.9 |
| 20260509121021 | 68 | 58 | 0.0 | 1.7 | 0.00 | 0.00 | 0.00 | 93 | 1010.7 |
| 20260509120519 | 68 | 124 | 0.0 | 0.9 | 0.00 | 0.00 | 0.00 | 93 | 1010.7 |
| 20260509120017 | 68 | 336 | 0.0 | 1.7 | 0.00 | 0.00 | 0.00 | 93 | 1010.7 |
| 20260509115514 | 69 | 4 | 0.9 | 1.7 | 0.00 | 0.00 | 0.00 | 92 | 1010.8 |
| 20260509115012 | 69 | 11 | 0.0 | 0.9 | 0.00 | 0.00 | 0.00 | 91 | 1010.8 |
| 20260509114510 | 69 | 199 | 0.9 | 1.7 | 0.00 | 0.00 | 0.00 | 91 | 1010.6 |
| 20260509114009 | 70 | 89 | 0.0 | 1.7 | 0.00 | 0.00 | 0.00 | 91 | 1010.8 |
| 20260509113506 | 70 | 161 | 0.9 | 2.6 | 0.00 | 0.00 | 0.00 | 90 | 1010.7 |
| 20260509113004 | 70 | 22 | 0.0 | 1.7 | 0.00 | 0.00 | 0.00 | 90 | 1010.6 |
| 20260509112500 | 70 | 189 | 2.6 | 5.2 | 0.00 | 0.00 | 0.00 | 90 | 1010.4 |
| 20260509111956 | 71 | 138 | 0.9 | 1.7 | 0.00 | 0.00 | 0.00 | 88 | 1010.6 |
| 20260509111454 | 71 | 220 | 0.0 | 0.9 | 0.00 | 0.00 | 0.00 | 87 | 1010.6 |
| 20260509110951 | 71 | 79 | 0.0 | 0.9 | 0.00 | 0.00 | 0.00 | 87 | 1010.6 |
| 20260509110447 | 72 | 42 | 0.9 | 0.9 | 0.00 | 0.00 | 0.00 | 86 | 1010.5 |
| 20260509105945 | 72 | 303 | 0.0 | 2.6 | 0.00 | 0.00 | 0.00 | 86 | 1010.7 |
| 20260509105443 | 72 | 259 | 1.7 | 2.6 | 0.00 | 0.00 | 0.00 | 87 | 1010.6 |
| 20260509104940 | 71 | 293 | 0.9 | 3.5 | 0.00 | 0.00 | 0.00 | 88 | 1010.5 |
| 20260509104437 | 71 | 251 | 0.0 | 1.7 | 0.00 | 0.00 | 0.00 | 90 | 1010.4 |
| 20260509103934 | 71 | 51 | 0.9 | 2.6 | 0.00 | 0.00 | 0.00 | 90 | 1010.4 |
| 20260509103432 | 71 | 78 | 0.9 | 2.6 | 0.00 | 0.00 | 0.00 | 91 | 1010.5 |
| 20260509102930 | 71 | 56 | 1.7 | 2.6 | 0.00 | 0.00 | 0.00 | 91 | 1010.3 |
| 20260509102427 | 71 | 12 | 4.3 | 7.0 | 0.00 | 0.00 | 0.00 | 92 | 1010.2 |
| 20260509101923 | 71 | 331 | 2.6 | 5.2 | 0.00 | 0.00 | 0.00 | 92 | 1010.3 |
| 20260509101419 | 71 | 8 | 4.3 | 5.2 | 0.00 | 0.00 | 0.00 | 93 | 1010.0 |
| 20260509100917 | 70 | 321 | 3.5 | 7.8 | 0.00 | 0.00 | 0.00 | 93 | 1010.0 |
| 20260509100414 | 70 | 206 | 2.6 | 9.6 | 0.00 | 0.00 | 0.00 | 93 | 1008.7 |
| 20260509095910 | 70 | 196 | 7.0 | 12.2 | 0.00 | 0.00 | 0.00 | 93 | 1008.6 |
| 20260509095408 | 70 | 195 | 6.1 | 7.8 | 0.00 | 0.00 | 0.00 | 93 | 1008.1 |
| 20260509094905 | 70 | 202 | 10.4 | 11.3 | 0.00 | 0.00 | 0.00 | 93 | 1007.6 |
| 20260509094401 | 70 | 190 | 3.5 | 7.8 | 0.00 | 0.00 | 0.00 | 93 | 1007.8 |
| 20260509093859 | 70 | 155 | 9.6 | 9.6 | 0.00 | 0.00 | 0.00 | 93 | 1007.9 |
| 20260509093356 | 70 | 164 | 1.7 | 10.4 | 0.00 | 0.00 | 0.00 | 93 | 1007.7 |
| 20260509092855 | 70 | 174 | 3.5 | 10.4 | 0.00 | 0.00 | 0.00 | 93 | 1007.9 |
| 20260509092352 | 70 | 188 | 6.1 | 11.3 | 0.00 | 0.00 | 0.00 | 93 | 1007.9 |
| 20260509091850 | 70 | 189 | 9.6 | 13.9 | 0.00 | 0.00 | 0.00 | 93 | 1008.1 |
| 20260509091346 | 70 | 134 | 3.5 | 11.3 | 0.00 | 0.00 | 0.00 | 93 | 1007.9 |
| 20260509090844 | 70 | 209 | 11.3 | 13.0 | 0.00 | 0.00 | 0.00 | 93 | 1008.1 |
| 20260509090341 | 70 | 203 | 7.8 | 10.4 | 0.00 | 0.00 | 0.00 | 93 | 1008.0 |
| 20260509085838 | 70 | 180 | 4.3 | 13.9 | 0.00 | 0.00 | 0.00 | 93 | 1008.0 |
| 20260509085335 | 70 | 189 | 3.5 | 11.3 | 0.00 | 0.00 | 0.00 | 93 | 1008.3 |
| 20260509084832 | 70 | 183 | 7.8 | 13.0 | 0.00 | 0.00 | 0.00 | 93 | 1008.3 |
| 20260509084329 | 69 | 178 | 2.6 | 10.4 | 0.00 | 0.00 | 0.00 | 93 | 1008.4 |
| 20260509083827 | 69 | 174 | 5.2 | 10.4 | 0.00 | 0.00 | 0.00 | 94 | 1008.7 |
| 20260509083323 | 69 | 197 | 7.0 | 9.6 | 0.00 | 0.00 | 0.00 | 94 | 1008.8 |
| 20260509082820 | 69 | 180 | 2.6 | 7.0 | 0.00 | 0.00 | 0.00 | 94 | 1009.3 |
| 20260509082316 | 69 | 211 | 5.2 | 7.0 | 0.00 | 0.00 | 0.00 | 94 | 1009.4 |
| 20260509081814 | 69 | 181 | 6.1 | 6.1 | 0.00 | 0.00 | 0.00 | 94 | 1009.8 |
| 20260509081310 | 69 | 165 | 1.7 | 3.5 | 0.00 | 0.00 | 0.00 | 94 | 1009.6 |
| 20260509080809 | 69 | 162 | 0.9 | 5.2 | 0.00 | 0.00 | 0.00 | 94 | 1010.3 |
| 20260509080306 | 69 | 183 | 1.7 | 4.3 | 0.00 | 0.00 | 0.00 | 93 | 1010.6 |
| 20260509075804 | 69 | 200 | 5.2 | 5.2 | 0.00 | 0.00 | 0.00 | 93 | 1010.8 |
| 20260509075301 | 69 | 203 | 3.5 | 5.2 | 0.00 | 0.00 | 0.00 | 93 | 1010.9 |
| 20260509074758 | 69 | 214 | 5.2 | 7.0 | 0.00 | 0.00 | 0.00 | 94 | 1011.2 |
| 20260509074256 | 69 | 192 | 3.5 | 7.8 | 0.00 | 0.00 | 0.00 | 94 | 1011.5 |
| 20260509073752 | 69 | 194 | 5.2 | 8.7 | 0.00 | 0.00 | 0.00 | 94 | 1011.6 |
| 20260509073248 | 69 | 191 | 5.2 | 6.1 | 0.00 | 0.00 | 0.00 | 94 | 1012.1 |
| 20260509072745 | 69 | 243 | 0.0 | 0.9 | 0.00 | 0.00 | 0.00 | 95 | 1012.3 |
| 20260509072242 | 69 | 69 | 0.0 | 1.7 | 0.00 | 0.00 | 0.00 | 94 | 1012.1 |
| 20260509071738 | 69 | 230 | 0.0 | 0.9 | 0.00 | 0.00 | 0.00 | 94 | 1012.1 |
| 20260509071236 | 69 | 218 | 0.0 | 0.0 | 0.00 | 0.00 | 0.00 | 94 | 1012.1 |
| 20260509070733 | 69 | 224 | 0.0 | 0.0 | 0.00 | 0.00 | 0.00 | 94 | 1012.1 |
| 20260509070229 | 69 | 169 | 0.0 | 0.9 | 0.00 | 0.00 | 0.00 | 94 | 1012.3 |
| 20260509065726 | 70 | 301 | 0.0 | 0.9 | 0.00 | 0.00 | 0.00 | 94 | 1012.3 |
| 20260509065222 | 70 | 186 | 0.0 | 0.0 | 0.00 | 0.00 | 0.00 | 94 | 1012.3 |
| 20260509064718 | 70 | 113 | 0.0 | 0.0 | 0.00 | 0.00 | 0.00 | 94 | 1012.3 |
| 20260509064216 | 70 | 210 | 0.0 | 2.6 | 0.00 | 0.00 | 0.00 | 95 | 1012.1 |
| 20260509063713 | 69 | 184 | 1.7 | 1.7 | 0.00 | 0.00 | 0.00 | 95 | 1012.0 |
| 20260509063209 | 69 | 322 | 0.0 | 0.9 | 0.00 | 0.00 | 0.00 | 95 | 1012.2 |
| 20260509062707 | 69 | 19 | 0.0 | 1.7 | 0.00 | 0.00 | 0.00 | 95 | 1012.3 |
| 20260509062204 | 69 | 19 | 1.7 | 2.6 | 0.00 | 0.00 | 0.00 | 95 | 1012.0 |
| 20260509061701 | 69 | 26 | 1.7 | 1.7 | 0.00 | 0.00 | 0.00 | 95 | 1011.9 |
| 20260509061158 | 69 | 37 | 0.0 | 1.7 | 0.00 | 0.00 | 0.00 | 95 | 1012.0 |
| 20260509060655 | 69 | 48 | 1.7 | 3.5 | 0.00 | 0.00 | 0.00 | 95 | 1012.0 |
| 20260509060152 | 69 | 20 | 2.6 | 3.5 | 0.00 | 0.00 | 0.00 | 94 | 1012.1 |
| 20260509055647 | 69 | 29 | 1.7 | 2.6 | 0.00 | 0.00 | 0.00 | 94 | 1011.9 |
| 20260509055144 | 69 | 19 | 1.7 | 1.7 | 0.00 | 0.00 | 0.00 | 94 | 1011.6 |
| 20260509054640 | 69 | 29 | 0.0 | 1.7 | 0.00 | 0.00 | 0.00 | 94 | 1011.7 |
| 20260509054138 | 69 | 13 | 1.7 | 2.6 | 0.00 | 0.00 | 0.00 | 93 | 1011.6 |
| 20260509053636 | 70 | 221 | 0.0 | 1.7 | 0.00 | 0.00 | 0.00 | 93 | 1011.0 |
| 20260509053132 | 69 | 155 | 0.0 | 0.9 | 0.00 | 0.00 | 0.00 | 93 | 1011.2 |
| 20260509052631 | 69 | 44 | 0.0 | 1.7 | 0.00 | 0.00 | 0.00 | 93 | 1011.3 |
| 20260509052128 | 70 | 168 | 0.0 | 0.9 | 0.00 | 0.00 | 0.00 | 93 | 1011.3 |
| 20260509051626 | 70 | 343 | 0.0 | 0.0 | 0.00 | 0.00 | 0.00 | 92 | 1011.3 |
| 20260509051122 | 70 | 63 | 0.0 | 0.0 | 0.00 | 0.00 | 0.00 | 92 | 1011.2 |
| 20260509050620 | 70 | 135 | 0.0 | 1.7 | 0.00 | 0.00 | 0.00 | 91 | 1011.1 |
| 20260509050116 | 71 | 196 | 1.7 | 2.6 | 0.00 | 0.00 | 0.00 | 91 | 1011.0 |
| 20260509045614 | 71 | 229 | 0.0 | 1.7 | 0.00 | 0.13 | 0.13 | 91 | 1011.1 |
| 20260509045110 | 71 | 176 | 1.7 | 1.7 | 0.00 | 0.13 | 0.13 | 91 | 1011.1 |
| 20260509044608 | 70 | 144 | 0.9 | 0.9 | 0.00 | 0.13 | 0.13 | 91 | 1011.2 |
| 20260509044105 | 71 | 136 | 0.0 | 1.7 | 0.00 | 0.13 | 0.13 | 91 | 1011.1 |
| 20260509043601 | 71 | 158 | 0.9 | 0.9 | 0.00 | 0.13 | 0.13 | 91 | 1011.4 |
| 20260509043057 | 71 | 50 | 0.0 | 0.9 | 0.00 | 0.13 | 0.13 | 91 | 1011.6 |
| 20260509042553 | 71 | 31 | 0.0 | 1.7 | 0.00 | 0.13 | 0.13 | 90 | 1011.7 |
| 20260509042049 | 71 | 50 | 0.9 | 1.7 | 0.00 | 0.13 | 0.13 | 90 | 1011.6 |
| 20260509041546 | 71 | 6 | 0.0 | 0.9 | 0.00 | 0.13 | 0.13 | 90 | 1011.4 |
| 20260509041044 | 71 | 36 | 1.7 | 1.7 | 0.00 | 0.13 | 0.13 | 89 | 1011.3 |
| 20260509040542 | 71 | 24 | 1.7 | 1.7 | 0.00 | 0.13 | 0.13 | 89 | 1011.3 |
| 20260509040039 | 72 | 87 | 0.9 | 1.7 | 0.00 | 0.13 | 0.13 | 88 | 1010.7 |
| 20260509035536 | 72 | 122 | 0.9 | 2.6 | 0.00 | 0.13 | 0.13 | 88 | 1010.8 |
| 20260509035032 | 72 | 113 | 0.9 | 1.7 | 0.00 | 0.13 | 0.13 | 87 | 1010.6 |
| 20260509034531 | 72 | 202 | 0.0 | 1.7 | 0.00 | 0.13 | 0.13 | 87 | 1010.8 |
| 20260509034027 | 72 | 89 | 0.0 | 1.7 | 0.00 | 0.13 | 0.13 | 86 | 1010.8 |
| 20260509033524 | 72 | 144 | 0.0 | 3.5 | 0.00 | 0.13 | 0.13 | 86 | 1010.7 |
| 20260509033016 | 72 | 110 | 0.9 | 1.7 | 0.00 | 0.13 | 0.13 | 86 | 1010.8 |
| 20260509032513 | 73 | 192 | 2.6 | 3.5 | 0.00 | 0.13 | 0.13 | 85 | 1010.6 |
| 20260509032010 | 73 | 128 | 0.9 | 1.7 | 0.00 | 0.13 | 0.13 | 85 | 1010.5 |
| 20260509031507 | 73 | 118 | 0.9 | 1.7 | 0.00 | 0.13 | 0.13 | 85 | 1010.6 |
| 20260509031005 | 73 | 112 | 0.0 | 1.7 | 0.00 | 0.13 | 0.13 | 85 | 1010.7 |
| 20260509030502 | 73 | 107 | 0.9 | 1.7 | 0.00 | 0.13 | 0.13 | 84 | 1010.6 |
| 20260509025959 | 73 | 120 | 0.0 | 1.7 | 0.00 | 0.13 | 0.13 | 84 | 1010.3 |
| 20260509025454 | 73 | 178 | 1.7 | 5.2 | 0.00 | 0.13 | 0.13 | 84 | 1010.0 |
| 20260509024950 | 73 | 159 | 2.6 | 4.3 | 0.00 | 0.13 | 0.13 | 84 | 1009.9 |
| 20260509024446 | 73 | 140 | 0.9 | 2.6 | 0.00 | 0.13 | 0.13 | 84 | 1010.0 |
| 20260509023943 | 73 | 132 | 0.0 | 0.9 | 0.00 | 0.13 | 0.13 | 84 | 1010.1 |
| 20260509023441 | 73 | 143 | 0.0 | 0.9 | 0.00 | 0.13 | 0.13 | 84 | 1010.0 |
| 20260509022937 | 73 | 142 | 0.0 | 1.7 | 0.00 | 0.13 | 0.13 | 84 | 1010.0 |
| 20260509022434 | 73 | 116 | 0.0 | 0.9 | 0.00 | 0.13 | 0.13 | 84 | 1010.3 |
| 20260509021932 | 73 | 117 | 0.0 | 0.9 | 0.00 | 0.13 | 0.13 | 84 | 1010.1 |
| 20260509021428 | 73 | 127 | 0.0 | 0.9 | 0.00 | 0.13 | 0.13 | 83 | 1010.0 |
| 20260509020926 | 73 | 102 | 0.0 | 1.7 | 0.00 | 0.13 | 0.13 | 83 | 1010.2 |
| 20260509020424 | 73 | 157 | 0.0 | 0.9 | 0.00 | 0.13 | 0.13 | 83 | 1010.0 |
| 20260509015921 | 73 | 136 | 0.0 | 0.9 | 0.00 | 0.13 | 0.13 | 83 | 1009.9 |
| 20260509015420 | 73 | 113 | 0.0 | 0.0 | 0.00 | 0.13 | 0.13 | 83 | 1010.0 |
| 20260509014915 | 73 | 103 | 0.0 | 0.0 | 0.00 | 0.13 | 0.13 | 82 | 1009.9 |
| 20260509014413 | 74 | 89 | 0.0 | 1.7 | 0.00 | 0.13 | 0.13 | 82 | 1009.8 |
| 20260509013909 | 74 | 182 | 0.9 | 1.7 | 0.00 | 0.13 | 0.13 | 82 | 1009.8 |
| 20260509013406 | 74 | 121 | 0.9 | 0.9 | 0.00 | 0.13 | 0.13 | 82 | 1009.5 |
| 20260509012901 | 74 | 157 | 0.0 | 1.7 | 0.00 | 0.13 | 0.13 | 82 | 1009.5 |
| 20260509012358 | 74 | 105 | 0.0 | 1.7 | 0.00 | 0.13 | 0.13 | 82 | 1009.6 |
| 20260509011856 | 74 | 89 | 0.0 | 1.7 | 0.00 | 0.13 | 0.13 | 82 | 1009.6 |
| 20260509011353 | 74 | 107 | 0.0 | 1.7 | 0.00 | 0.13 | 0.13 | 82 | 1009.3 |
| 20260509010851 | 74 | 152 | 0.0 | 0.9 | 0.00 | 0.13 | 0.13 | 82 | 1009.2 |
| 20260509010348 | 74 | 178 | 0.9 | 1.7 | 0.00 | 0.13 | 0.13 | 82 | 1009.2 |
| 20260509005845 | 74 | 124 | 0.0 | 0.9 | 0.00 | 0.13 | 0.13 | 81 | 1009.3 |
| 20260509005343 | 74 | 177 | 0.9 | 1.7 | 0.00 | 0.13 | 0.13 | 81 | 1009.1 |
| 20260509004843 | 74 | 141 | 0.0 | 0.9 | 0.00 | 0.13 | 0.13 | 81 | 1009.3 |
| 20260509004340 | 74 | 117 | 0.0 | 0.9 | 0.00 | 0.13 | 0.13 | 81 | 1009.3 |
| 20260509003837 | 74 | 156 | 0.0 | 0.9 | 0.00 | 0.13 | 0.13 | 81 | 1009.2 |
| 20260509003335 | 74 | 165 | 0.9 | 1.7 | 0.00 | 0.13 | 0.13 | 81 | 1009.0 |
| 20260509002832 | 75 | 102 | 0.0 | 1.7 | 0.00 | 0.13 | 0.13 | 80 | 1009.1 |
| 20260509002329 | 75 | 75 | 0.0 | 0.0 | 0.00 | 0.13 | 0.13 | 79 | 1009.1 |
| 20260509001827 | 75 | 95 | 0.0 | 0.0 | 0.00 | 0.13 | 0.13 | 79 | 1009.1 |
| 20260509001323 | 75 | 89 | 0.0 | 0.0 | 0.00 | 0.13 | 0.13 | 79 | 1009.0 |
| 20260509000821 | 75 | 50 | 0.0 | 0.0 | 0.00 | 0.13 | 0.13 | 79 | 1009.2 |
| 20260509000318 | 75 | 0 | 0.0 | 0.9 | 0.00 | 0.13 | 0.13 | 79 | 1009.1 |
| 20260508235814 | 75 | 62 | 0.0 | 0.9 | 0.00 | 0.13 | 0.13 | 78 | 1009.2 |
| 20260508235311 | 75 | 86 | 0.0 | 1.7 | 0.00 | 0.13 | 0.13 | 78 | 1009.3 |
| 20260508234809 | 75 | 141 | 0.0 | 0.9 | 0.00 | 0.13 | 0.13 | 79 | 1009.2 |
| 20260508234259 | 74 | 150 | 0.0 | 1.7 | 0.00 | 0.13 | 0.13 | 79 | 1009.2 |
| 20260508233758 | 75 | 154 | 0.0 | 1.7 | 0.00 | 0.13 | 0.13 | 79 | 1009.3 |
| 20260508233257 | 75 | 105 | 0.0 | 2.6 | 0.00 | 0.13 | 0.13 | 79 | 1009.2 |
| 20260508232753 | 75 | 131 | 1.7 | 1.7 | 0.00 | 0.13 | 0.13 | 78 | 1009.3 |
| 20260508232250 | 75 | 104 | 0.9 | 5.2 | 0.00 | 0.13 | 0.13 | 78 | 1009.3 |
| 20260508231748 | 75 | 119 | 0.9 | 1.7 | 0.00 | 0.13 | 0.13 | 77 | 1009.3 |
| 20260508231244 | 75 | 124 | 1.7 | 3.5 | 0.00 | 0.13 | 0.13 | 76 | 1009.2 |
| 20260508230741 | 76 | 95 | 0.9 | 5.2 | 0.00 | 0.13 | 0.13 | 76 | 1009.2 |
| 20260508230237 | 76 | 135 | 0.9 | 2.6 | 0.00 | 0.13 | 0.13 | 76 | 1009.3 |
| 20260508225735 | 75 | 101 | 0.0 | 5.2 | 0.00 | 0.13 | 0.13 | 77 | 1009.2 |
| 20260508225232 | 77 | 192 | 1.7 | 6.1 | 0.00 | 0.13 | 0.13 | 75 | 1009.2 |
| 20260508224729 | 77 | 179 | 3.5 | 3.5 | 0.00 | 0.13 | 0.13 | 75 | 1009.4 |
| 20260508224227 | 75 | 124 | 0.9 | 3.5 | 0.00 | 0.13 | 0.13 | 77 | 1009.3 |
| 20260508223724 | 75 | 113 | 2.6 | 3.5 | 0.00 | 0.13 | 0.13 | 76 | 1009.2 |
| 20260508223221 | 75 | 180 | 1.7 | 5.2 | 0.00 | 0.13 | 0.13 | 77 | 1009.2 |
| 20260508222719 | 74 | 139 | 0.9 | 8.7 | 0.00 | 0.13 | 0.13 | 77 | 1009.4 |
| 20260508222216 | 75 | 92 | 0.9 | 2.6 | 0.00 | 0.13 | 0.13 | 78 | 1009.4 |
| 20260508221712 | 74 | 195 | 1.7 | 6.1 | 0.00 | 0.13 | 0.13 | 78 | 1009.5 |
| 20260508221208 | 75 | 200 | 7.8 | 8.7 | 0.00 | 0.13 | 0.13 | 75 | 1009.5 |
| 20260508220704 | 74 | 96 | 0.9 | 2.6 | 0.00 | 0.13 | 0.13 | 79 | 1009.4 |
| 20260508220201 | 73 | 199 | 2.6 | 4.3 | 0.00 | 0.13 | 0.13 | 80 | 1009.6 |
| 20260508215658 | 73 | 197 | 2.6 | 3.5 | 0.00 | 0.13 | 0.13 | 79 | 1009.6 |
| 20260508215154 | 72 | 195 | 0.9 | 1.7 | 0.00 | 0.13 | 0.13 | 80 | 1010.1 |
| 20260508214651 | 71 | 165 | 0.0 | 3.5 | 0.00 | 0.13 | 0.13 | 83 | 1010.1 |
| 20260508214149 | 71 | 156 | 0.0 | 1.7 | 0.00 | 0.13 | 0.13 | 86 | 1010.2 |
| 20260508213645 | 71 | 195 | 1.7 | 1.7 | 0.00 | 0.13 | 0.13 | 86 | 1010.2 |
| 20260508213141 | 69 | 208 | 0.9 | 1.7 | 0.00 | 0.13 | 0.13 | 89 | 1010.3 |
| 20260508212638 | 69 | 157 | 0.0 | 1.7 | 0.00 | 0.13 | 0.13 | 91 | 1010.4 |
| 20260508212135 | 69 | 224 | 0.0 | 0.0 | 0.00 | 0.13 | 0.13 | 91 | 1010.6 |
| 20260508211635 | 68 | 13 | 0.0 | 2.6 | 0.00 | 0.13 | 0.13 | 91 | 1010.6 |
| 20260508211131 | 68 | 38 | 0.0 | 1.7 | 0.00 | 0.13 | 0.13 | 92 | 1010.6 |
| 20260508210628 | 68 | 290 | 1.7 | 3.5 | 0.00 | 0.13 | 0.13 | 92 | 1010.8 |
| 20260508210126 | 68 | 312 | 2.6 | 4.3 | 0.00 | 0.13 | 0.13 | 91 | 1010.8 |
| 20260508205623 | 67 | 318 | 2.6 | 6.1 | 0.00 | 0.13 | 0.13 | 92 | 1010.8 |
| 20260508205119 | 67 | 340 | 0.0 | 3.5 | 0.00 | 0.13 | 0.13 | 92 | 1010.4 |
| 20260508204615 | 66 | 356 | 1.7 | 7.8 | 0.07 | 0.13 | 0.13 | 93 | 1009.5 |
| 20260508204112 | 66 | 170 | 2.6 | 7.8 | 0.38 | 0.13 | 0.13 | 93 | 1009.0 |
| 20260508203608 | 66 | 85 | 1.7 | 3.5 | 0.42 | 0.11 | 0.11 | 92 | 1009.4 |
| 20260508203104 | 66 | 155 | 3.5 | 5.2 | 0.31 | 0.06 | 0.06 | 90 | 1010.7 |
| 20260508202600 | 67 | 180 | 2.6 | 4.3 | 0.21 | 0.04 | 0.04 | 87 | 1010.9 |
| 20260508202058 | 69 | 135 | 2.6 | 4.3 | 0.07 | 0.01 | 0.01 | 81 | 1011.3 |
| 20260508201554 | 69 | 138 | 1.7 | 5.2 | 0.02 | 0.00 | 0.00 | 78 | 1011.5 |
| 20260508201051 | 70 | 191 | 4.3 | 7.8 | 0.00 | 0.00 | 0.00 | 75 | 1011.7 |
| 20260508200548 | 70 | 172 | 1.7 | 8.7 | 0.00 | 0.00 | 0.00 | 74 | 1011.9 |
| 20260508200044 | 71 | 165 | 2.6 | 5.2 | 0.00 | 0.00 | 0.00 | 73 | 1012.2 |
| 20260508195541 | 71 | 218 | 2.6 | 9.6 | 0.00 | 0.00 | 0.00 | 73 | 1011.8 |
| 20260508195037 | 71 | 207 | 6.1 | 6.1 | 0.00 | 0.00 | 0.00 | 72 | 1012.0 |
| 20260508194534 | 71 | 202 | 4.3 | 8.7 | 0.00 | 0.00 | 0.00 | 73 | 1012.2 |
| 20260508194031 | 71 | 195 | 5.2 | 9.6 | 0.00 | 0.00 | 0.00 | 72 | 1011.9 |
| 20260508193527 | 71 | 192 | 5.2 | 8.7 | 0.00 | 0.00 | 0.00 | 71 | 1012.0 |
| 20260508193024 | 72 | 141 | 0.9 | 7.8 | 0.00 | 0.00 | 0.00 | 69 | 1012.1 |
| 20260508192521 | 73 | 204 | 3.5 | 7.8 | 0.00 | 0.00 | 0.00 | 67 | 1011.8 |
| 20260508192018 | 73 | 112 | 0.9 | 6.1 | 0.00 | 0.00 | 0.00 | 68 | 1011.9 |
| 20260508191515 | 73 | 168 | 1.7 | 2.6 | 0.00 | 0.00 | 0.00 | 68 | 1011.9 |
| 20260508191011 | 72 | 152 | 2.6 | 10.4 | 0.00 | 0.00 | 0.00 | 68 | 1012.1 |
| 20260508190509 | 71 | 95 | 0.0 | 9.6 | 0.00 | 0.00 | 0.00 | 68 | 1012.2 |
| 20260508190005 | 71 | 194 | 6.1 | 7.0 | 0.00 | 0.00 | 0.00 | 68 | 1012.4 |
| 20260508185502 | 71 | 171 | 3.5 | 5.2 | 0.00 | 0.00 | 0.00 | 68 | 1012.3 |
| 20260508185000 | 71 | 148 | 3.5 | 9.6 | 0.00 | 0.00 | 0.00 | 68 | 1012.4 |
| 20260508184457 | 72 | 187 | 3.5 | 5.2 | 0.00 | 0.00 | 0.00 | 66 | 1012.3 |
| 20260508183954 | 73 | 132 | 1.7 | 7.0 | 0.00 | 0.00 | 0.00 | 67 | 1012.4 |
| 20260508183450 | 73 | 189 | 5.2 | 7.8 | 0.00 | 0.00 | 0.00 | 66 | 1012.4 |
| 20260508182945 | 72 | 181 | 4.3 | 4.3 | 0.00 | 0.00 | 0.00 | 67 | 1012.4 |
| 20260508182443 | 72 | 152 | 1.7 | 5.2 | 0.00 | 0.00 | 0.00 | 68 | 1012.8 |
| 20260508181944 | 73 | 157 | 3.5 | 5.2 | 0.00 | 0.00 | 0.00 | 67 | 1012.8 |
| 20260508181440 | 73 | 93 | 0.0 | 2.6 | 0.00 | 0.00 | 0.00 | 66 | 1012.7 |
| 20260508180938 | 73 | 161 | 4.3 | 4.3 | 0.00 | 0.00 | 0.00 | 66 | 1012.9 |
| 20260508180435 | 74 | 183 | 1.7 | 6.1 | 0.00 | 0.00 | 0.00 | 65 | 1012.9 |
| 20260508175930 | 75 | 151 | 0.0 | 2.6 | 0.00 | 0.00 | 0.00 | 63 | 1012.9 |
| 20260508175427 | 77 | 145 | 1.7 | 3.5 | 0.00 | 0.00 | 0.00 | 62 | 1012.8 |
| 20260508174926 | 75 | 137 | 0.9 | 4.3 | 0.00 | 0.00 | 0.00 | 64 | 1012.7 |
| 20260508174423 | 74 | 143 | 1.7 | 4.3 | 0.00 | 0.00 | 0.00 | 65 | 1012.7 |